»·PEaware :: ACA845 EDDF-CYYC

ACA845 :: EDDF-CYYC

FLIGHT INFORMATION

Flight Status: Arrived
Operator:
Air Canada
More flights by this operator :: More flights under this callsign
Pilot: Jamyson D. (13674)
Aircraft: Unknown
(B77L)
More flights by this aircraft type
Origin: EDDF Frankfurt/Main
Germany
Destination: CYYC Calgary Intl
Canada
More flights between these airports :: More routes between these airports
Route: BIBTI DIBIR GODOS P1 ROKAN N96 NEXUS UP18 ADN UN581 VADNO UL613 BAMRA UP61 RATSU 64N020W 66N030W 67N040W 68N050W CANEL NCAC 080C NCAV KEDEK DUDNI BIRKO3
File this flight plan on PilotEdge
Remarks:
Altitude:
(Current/Filed)
40,000ft
Speed:
(Current/Filed)
475kts
Departed: 12-Apr-18 05:54 AM
Arrived: 12-Apr-18 08:32 AM
Distance/Time
Traveled:
4061nm/2:37
Distance/Time
To Go:
Arrived

Flight Plot

Page will automatically refresh every two minutes.

Flight plan parsing failed; only flown route is shown


Map Options




Map Legend


Flown Route
Filed Route
Departure Airport
Arrival Airport
Navaid (VOR, NDB)
Fix

Horizontal Profiles

Position Reports

Time Latitude Longitude Heading Altitude Ground
Speed
12-Apr-18 05:52 64.624639 -87.677100 235 39879ft 499kts
12-Apr-18 05:53 64.546550 -87.945499 235 39876ft 500kts
12-Apr-18 05:54 64.468138 -88.211811 235 39874ft 501kts
12-Apr-18 05:55 64.389167 -88.476869 235 39871ft 500kts
12-Apr-18 05:56 64.309476 -88.741219 235 39867ft 501kts
12-Apr-18 05:57 64.229486 -89.003478 234 39890ft 501kts
12-Apr-18 05:58 64.148941 -89.264516 234 39879ft 502kts
12-Apr-18 05:59 64.068313 -89.526053 234 39870ft 502kts
12-Apr-18 06:00 63.986326 -89.783881 234 39862ft 502kts
12-Apr-18 06:01 63.904964 -90.041647 238 39853ft 502kts
12-Apr-18 06:02 63.841630 -90.291994 241 39852ft 502kts
12-Apr-18 06:03 63.771831 -90.564956 240 39849ft 501kts
12-Apr-18 06:04 63.702210 -90.838246 241 39844ft 501kts
12-Apr-18 06:05 63.632299 -91.109770 240 39843ft 501kts
12-Apr-18 06:06 63.561266 -91.378967 240 39844ft 502kts
12-Apr-18 06:07 63.489322 -91.647969 239 39844ft 502kts
12-Apr-18 06:08 63.417137 -91.914614 239 39844ft 502kts
12-Apr-18 06:09 63.344426 -92.180026 239 39846ft 502kts
12-Apr-18 06:10 63.270951 -92.445068 239 39842ft 502kts
12-Apr-18 06:11 63.197248 -92.707835 239 39843ft 502kts
12-Apr-18 06:12 63.128725 -92.949410 239 39845ft 502kts
12-Apr-18 06:13 63.053869 -93.210392 239 39872ft 502kts
12-Apr-18 06:14 62.978748 -93.469307 238 39876ft 502kts
12-Apr-18 06:15 62.903229 -93.726637 238 39879ft 502kts
12-Apr-18 06:16 62.826967 -93.983572 238 39882ft 502kts
12-Apr-18 06:17 62.750556 -94.238126 238 39883ft 501kts
12-Apr-18 06:18 62.673710 -94.491283 238 39894ft 501kts
12-Apr-18 06:19 62.596131 -94.744027 238 39901ft 501kts
12-Apr-18 06:20 62.518326 -94.994732 238 39907ft 501kts
12-Apr-18 06:21 62.439839 -95.244864 237 39912ft 501kts
12-Apr-18 06:22 62.364774 -95.481554 237 39916ft 501kts
12-Apr-18 06:23 62.285759 -95.728087 237 39927ft 501kts
12-Apr-18 06:24 62.206050 -95.974123 237 39925ft 501kts
12-Apr-18 06:25 62.126234 -96.217865 236 39964ft 501kts
12-Apr-18 06:26 62.045923 -96.460526 236 39965ft 501kts
12-Apr-18 06:27 61.964923 -96.702695 236 39965ft 501kts
12-Apr-18 06:28 61.883999 -96.942125 236 39965ft 499kts
12-Apr-18 06:29 61.802701 -97.180165 236 39966ft 499kts
12-Apr-18 06:30 61.720721 -97.417731 236 39967ft 499kts
12-Apr-18 06:31 61.638542 -97.653444 236 39968ft 500kts
12-Apr-18 06:32 61.562358 -97.869814 235 39969ft 500kts
12-Apr-18 06:33 61.479103 -98.103971 235 39970ft 500kts
12-Apr-18 06:34 61.395811 -98.335874 235 39972ft 499kts
12-Apr-18 06:35 61.311944 -98.567049 235 39993ft 498kts
12-Apr-18 06:36 61.228021 -98.796078 235 40013ft 498kts
12-Apr-18 06:37 61.143813 -99.023624 235 40012ft 498kts
12-Apr-18 06:38 61.059004 -99.250555 234 40011ft 497kts
12-Apr-18 06:39 60.974178 -99.475352 234 40010ft 497kts
12-Apr-18 06:40 60.889495 -99.699465 234 40009ft 497kts
12-Apr-18 06:41 60.803397 -99.921680 234 40009ft 496kts
12-Apr-18 06:42 60.726692 -100.128498 237 40009ft 494kts
12-Apr-18 06:43 60.646720 -100.356148 236 40008ft 494kts
12-Apr-18 06:44 60.565438 -100.582617 237 40008ft 494kts
12-Apr-18 06:45 60.485799 -100.809483 236 40008ft 494kts
12-Apr-18 06:46 60.404565 -101.034647 236 40008ft 494kts
12-Apr-18 06:47 60.323057 -101.257704 236 40042ft 494kts
12-Apr-18 06:48 60.241253 -101.479352 236 40054ft 493kts
12-Apr-18 06:49 60.158914 -101.700330 235 40092ft 492kts
12-Apr-18 06:50 60.076563 -101.919265 235 40094ft 492kts
12-Apr-18 06:51 59.993883 -102.137024 235 40096ft 492kts
12-Apr-18 06:52 59.914580 -102.343992 235 40097ft 492kts
12-Apr-18 06:53 59.831325 -102.559324 235 40099ft 491kts
12-Apr-18 06:54 59.747560 -102.773983 235 40101ft 490kts
12-Apr-18 06:55 59.663878 -102.986482 235 40103ft 490kts
12-Apr-18 06:56 59.579935 -103.197715 234 40105ft 489kts
12-Apr-18 06:57 59.495402 -103.408520 234 40107ft 489kts
12-Apr-18 06:58 59.410837 -103.617518 234 40108ft 489kts
12-Apr-18 06:59 59.325720 -103.826008 234 40110ft 488kts
12-Apr-18 07:00 59.240549 -104.032783 234 40102ft 488kts
12-Apr-18 07:01 59.155247 -104.238062 234 40101ft 487kts
12-Apr-18 07:02 59.075887 -104.427433 234 40103ft 487kts
12-Apr-18 07:03 58.990169 -104.630266 233 40105ft 486kts
12-Apr-18 07:04 58.904230 -104.831874 233 40106ft 486kts
12-Apr-18 07:05 58.817759 -105.032985 233 40103ft 485kts
12-Apr-18 07:06 58.731426 -105.232065 233 40102ft 484kts
12-Apr-18 07:07 58.644595 -105.430597 233 40101ft 484kts
12-Apr-18 07:08 58.557877 -105.627201 233 40097ft 483kts
12-Apr-18 07:09 58.470726 -105.823134 233 40088ft 482kts
12-Apr-18 07:10 58.383703 -106.017155 233 40084ft 481kts
12-Apr-18 07:11 58.296498 -106.209980 232 40077ft 481kts
12-Apr-18 07:12 58.214716 -106.389378 232 40070ft 481kts
12-Apr-18 07:13 58.126929 -106.580431 232 40065ft 481kts
12-Apr-18 07:14 58.038799 -106.770678 232 40060ft 481kts
12-Apr-18 07:15 57.950183 -106.960428 232 40057ft 479kts
12-Apr-18 07:16 57.862451 -107.148298 231 40054ft 479kts
12-Apr-18 07:17 57.773755 -107.334070 231 40052ft 478kts
12-Apr-18 07:18 57.673640 -107.500029 216 40050ft 487kts
12-Apr-18 07:19 57.558284 -107.632151 214 40048ft 487kts
12-Apr-18 07:20 57.442746 -107.764845 215 40046ft 487kts
12-Apr-18 07:21 57.328366 -107.898301 215 40044ft 486kts
12-Apr-18 07:22 57.219422 -108.023556 215 40035ft 485kts
12-Apr-18 07:23 57.104477 -108.154422 215 40034ft 484kts
12-Apr-18 07:24 56.989984 -108.283766 215 40032ft 483kts
12-Apr-18 07:25 56.875526 -108.412119 214 40030ft 483kts
12-Apr-18 07:26 56.760703 -108.539948 214 40011ft 482kts
12-Apr-18 07:27 56.646284 -108.666407 214 40005ft 482kts
12-Apr-18 07:28 56.531757 -108.792081 214 40004ft 481kts
12-Apr-18 07:29 56.416841 -108.917283 214 40004ft 481kts
12-Apr-18 07:30 56.302215 -109.041281 214 40003ft 480kts
12-Apr-18 07:31 56.187581 -109.164414 214 40003ft 480kts
12-Apr-18 07:32 56.078178 -109.281125 214 40002ft 480kts
12-Apr-18 07:33 55.963548 -109.402576 214 40000ft 479kts
12-Apr-18 07:34 55.848812 -109.523300 213 39996ft 478kts
12-Apr-18 07:35 55.734322 -109.642930 213 39989ft 478kts
12-Apr-18 07:36 55.619704 -109.761876 213 39981ft 478kts
12-Apr-18 07:37 55.504628 -109.880479 213 39972ft 477kts
12-Apr-18 07:38 55.389875 -109.997945 213 39963ft 477kts
12-Apr-18 07:39 55.275291 -110.114447 213 39955ft 476kts
12-Apr-18 07:40 55.160315 -110.230563 213 39950ft 476kts
12-Apr-18 07:41 55.045656 -110.345582 213 39943ft 475kts
12-Apr-18 07:42 54.936326 -110.454544 212 39942ft 475kts
12-Apr-18 07:43 54.821651 -110.568096 212 39950ft 475kts
12-Apr-18 07:44 54.726073 -110.662168 212 39954ft 475kts
12-Apr-18 07:45 54.610940 -110.774803 212 39958ft 474kts
12-Apr-18 07:46 54.477076 -110.904840 212 39960ft 474kts
12-Apr-18 07:47 54.362244 -111.015606 211 39960ft 474kts
12-Apr-18 07:48 54.246862 -111.126181 211 39955ft 474kts
12-Apr-18 07:49 54.131859 -111.235688 211 39946ft 474kts
12-Apr-18 07:50 54.016349 -111.344968 211 39936ft 474kts
12-Apr-18 07:51 53.901360 -111.453066 211 39928ft 472kts
12-Apr-18 07:52 53.814294 -111.534456 211 39923ft 472kts
12-Apr-18 07:53 53.698913 -111.641722 211 39917ft 472kts
12-Apr-18 07:54 53.583876 -111.747997 211 39898ft 472kts
12-Apr-18 07:55 53.468821 -111.853625 210 39892ft 472kts
12-Apr-18 07:56 53.353348 -111.958979 210 39886ft 471kts
12-Apr-18 07:57 53.238312 -112.063286 210 39867ft 470kts
12-Apr-18 07:58 53.123406 -112.166832 210 39863ft 469kts
12-Apr-18 07:59 53.008263 -112.269955 210 39849ft 468kts
12-Apr-18 08:00 52.905889 -112.361125 210 39845ft 467kts
12-Apr-18 08:01 52.810468 -112.445658 210 39841ft 467kts
12-Apr-18 08:02 52.704067 -112.539421 210 39837ft 466kts
12-Apr-18 08:03 52.590876 -112.638599 210 38005ft 460kts
12-Apr-18 08:04 52.478492 -112.736981 210 35451ft 453kts
12-Apr-18 08:05 52.368540 -112.832055 210 33602ft 430kts
12-Apr-18 08:06 52.263604 -112.922137 209 31234ft 427kts
12-Apr-18 08:07 52.151845 -112.982176 196 29133ft 420kts
12-Apr-18 08:08 52.039873 -113.028432 196 26971ft 410kts
12-Apr-18 08:09 51.930951 -113.074064 196 25025ft 397kts
12-Apr-18 08:10 51.824908 -113.118796 196 22968ft 389kts
12-Apr-18 08:11 51.721173 -113.162383 195 21034ft 379kts
12-Apr-18 08:12 51.630107 -113.200106 195 20203ft 347kts
12-Apr-18 08:13 51.542492 -113.236229 195 19953ft 305kts
12-Apr-18 08:14 51.467125 -113.284051 221 19026ft 289kts
12-Apr-18 08:15 51.415035 -113.381045 229 17882ft 286kts
12-Apr-18 08:16 51.364646 -113.478429 228 16741ft 282kts
12-Apr-18 08:17 51.314295 -113.574536 228 15603ft 279kts
12-Apr-18 08:18 51.286769 -113.683699 279 14528ft 279kts
12-Apr-18 08:19 51.315610 -113.795541 290 13791ft 264kts
12-Apr-18 08:20 51.376188 -113.881783 318 12293ft 258kts
12-Apr-18 08:21 51.435338 -113.900848 358 10482ft 275kts
12-Apr-18 08:22 51.507316 -113.911688 335 8164ft 279kts
12-Apr-18 08:23 51.519707 -114.007037 219 7038ft 223kts
12-Apr-18 08:24 51.459277 -114.013019 171 7001ft 222kts
12-Apr-18 08:25 51.400117 -114.002456 171 6517ft 207kts
12-Apr-18 08:26 51.342481 -113.992405 172 6497ft 209kts
12-Apr-18 08:27 51.284154 -113.990068 177 6201ft 215kts
12-Apr-18 08:28 51.224912 -113.990163 177 5057ft 201kts
12-Apr-18 08:29 51.174574 -113.990241 176 4089ft 153kts
12-Apr-18 08:30 51.137529 -113.990162 180 3571ft 84kts
12-Apr-18 08:31 51.127184 -113.992629 237 3570ft 23kts
12-Apr-18 08:32 51.127014 -114.001510 271 3570ft 17kts
12-Apr-18 08:33 51.127884 -114.002041 296 3570ft 11kts
12-Apr-18 08:34 51.128013 -114.002960 276 3570ft 0kts

Navigation Log

Ident Type
Flight plan parsing failed, navigation log unavailable